createdAt,value
2016-08-12T00:00:29.435Z,975.39
2016-08-12T00:01:29.434Z,975.38
2016-08-12T00:02:29.431Z,975.37
2016-08-12T00:03:29.431Z,975.42
2016-08-12T00:04:29.430Z,975.41
2016-08-12T00:05:29.431Z,975.36
2016-08-12T00:06:29.430Z,975.37
2016-08-12T00:07:29.426Z,975.29
2016-08-12T00:08:29.427Z,975.27
2016-08-12T00:09:29.428Z,975.31
2016-08-12T00:10:29.427Z,975.28
2016-08-12T00:11:29.428Z,975.27
2016-08-12T00:12:29.427Z,975.25
2016-08-12T00:13:29.422Z,975.28
2016-08-12T00:14:29.423Z,975.33
2016-08-12T00:15:29.423Z,975.34
2016-08-12T00:16:29.424Z,975.38
2016-08-12T00:17:29.423Z,975.39
2016-08-12T00:18:29.419Z,975.33
2016-08-12T00:19:29.419Z,975.36
2016-08-12T00:20:29.419Z,975.41
2016-08-12T00:21:29.418Z,975.39
2016-08-12T00:22:29.418Z,975.37
2016-08-12T00:23:29.419Z,975.39
2016-08-12T00:24:29.419Z,975.34
2016-08-12T00:25:29.415Z,975.36
2016-08-12T00:26:29.416Z,975.31
2016-08-12T00:27:29.415Z,975.27
2016-08-12T00:28:29.412Z,975.25
2016-08-12T00:29:29.412Z,975.25
2016-08-12T00:30:29.411Z,975.26
2016-08-12T00:31:29.411Z,975.27
2016-08-12T00:32:29.411Z,975.24
2016-08-12T00:33:29.411Z,975.26
2016-08-12T00:34:29.407Z,975.28
2016-08-12T00:35:29.407Z,975.24
2016-08-12T00:36:29.407Z,975.21
2016-08-12T00:37:29.407Z,975.22
2016-08-12T00:38:29.410Z,975.16
2016-08-12T00:39:29.403Z,975.14
2016-08-12T00:40:29.404Z,975.19
2016-08-12T00:41:29.403Z,975.16
2016-08-12T00:42:29.403Z,975.13
2016-08-12T00:43:29.404Z,975.16
2016-08-12T00:44:29.403Z,975.18
2016-08-12T00:45:29.400Z,975.23
2016-08-12T00:46:29.399Z,975.2
2016-08-12T00:47:29.400Z,975.2
2016-08-12T00:48:29.400Z,975.22
2016-08-12T00:49:29.396Z,975.21
2016-08-12T00:50:29.396Z,975.2
2016-08-12T00:51:29.396Z,975.22
2016-08-12T00:52:29.396Z,975.22
2016-08-12T00:53:29.395Z,975.24
2016-08-12T00:54:29.396Z,975.25
2016-08-12T00:55:29.391Z,975.28
2016-08-12T00:56:29.392Z,975.28
2016-08-12T00:57:29.392Z,975.29
2016-08-12T00:58:29.397Z,975.32
2016-08-12T00:59:29.392Z,975.28
2016-08-12T01:00:29.388Z,975.34
2016-08-12T01:01:29.388Z,975.36
2016-08-12T01:02:29.388Z,975.39
2016-08-12T01:03:29.389Z,975.38
2016-08-12T01:04:29.389Z,975.39
2016-08-12T01:05:29.386Z,975.41
2016-08-12T01:06:29.384Z,975.45
2016-08-12T01:07:29.385Z,975.42
2016-08-12T01:08:29.384Z,975.42
2016-08-12T01:09:29.384Z,975.41
2016-08-12T01:10:29.381Z,975.43
2016-08-12T01:11:29.380Z,975.43
2016-08-12T01:12:29.388Z,975.4
2016-08-12T01:13:29.381Z,975.45
2016-08-12T01:14:29.381Z,975.45
2016-08-12T01:15:29.377Z,975.45
2016-08-12T01:16:29.377Z,975.5
2016-08-12T01:17:29.376Z,975.52
2016-08-12T01:18:29.377Z,975.55
2016-08-12T01:19:29.377Z,975.52
2016-08-12T01:20:29.374Z,975.47
2016-08-12T01:21:29.373Z,975.52
2016-08-12T01:22:29.373Z,975.48
2016-08-12T01:23:29.373Z,975.5
2016-08-12T01:24:29.374Z,975.46
2016-08-12T01:25:29.373Z,975.46
2016-08-12T01:26:29.370Z,975.44
2016-08-12T01:27:29.370Z,975.44
2016-08-12T01:28:29.369Z,975.45
2016-08-12T01:29:29.369Z,975.42
2016-08-12T01:30:29.370Z,975.4
2016-08-12T01:31:29.366Z,975.43
2016-08-12T01:32:29.365Z,975.39
2016-08-12T01:34:29.366Z,975.36
2016-08-12T01:35:29.366Z,975.35
2016-08-12T01:36:29.365Z,975.32
2016-08-12T01:37:29.362Z,975.37
2016-08-12T01:38:29.361Z,975.35
2016-08-12T01:39:29.362Z,975.32
2016-08-12T01:40:29.364Z,975.34
2016-08-12T01:41:29.358Z,975.32
2016-08-12T01:42:29.358Z,975.35
2016-08-12T01:43:29.358Z,975.32
2016-08-12T01:44:29.358Z,975.3
2016-08-12T01:45:29.357Z,975.32
2016-08-12T01:46:29.354Z,975.29
2016-08-12T01:47:29.355Z,975.31
2016-08-12T01:49:29.355Z,975.3
2016-08-12T01:50:29.355Z,975.29
2016-08-12T01:51:29.351Z,975.31
2016-08-12T01:52:29.351Z,975.35
2016-08-12T01:53:29.351Z,975.32
2016-08-12T01:54:29.350Z,975.36
2016-08-12T01:55:29.346Z,975.34
2016-08-12T01:56:29.346Z,975.32
2016-08-12T01:57:29.346Z,975.35
2016-08-12T01:58:29.346Z,975.38
2016-08-12T01:59:29.346Z,975.35
2016-08-12T02:00:29.347Z,975.33
2016-08-12T02:01:29.342Z,975.37
2016-08-12T02:02:29.342Z,975.36
2016-08-12T02:04:29.342Z,975.3
2016-08-12T02:05:29.342Z,975.31
2016-08-12T02:06:29.338Z,975.35
2016-08-12T02:07:29.338Z,975.3
2016-08-12T02:08:29.339Z,975.29
2016-08-12T02:09:29.339Z,975.3
2016-08-12T02:10:29.339Z,975.28
2016-08-12T02:11:29.335Z,975.23
2016-08-12T02:12:29.335Z,975.24
2016-08-12T02:13:29.336Z,975.31
2016-08-12T02:14:29.335Z,975.29
2016-08-12T02:15:29.335Z,975.29
2016-08-12T02:16:29.331Z,975.28
2016-08-12T02:17:29.331Z,975.28
2016-08-12T02:19:29.331Z,975.32
2016-08-12T02:20:29.331Z,975.37
2016-08-12T02:21:29.326Z,975.41
2016-08-12T02:22:29.326Z,975.45
2016-08-12T02:23:29.327Z,975.45
2016-08-12T02:24:29.326Z,975.47
2016-08-12T02:25:29.322Z,975.51
2016-08-12T02:26:29.323Z,975.53
2016-08-12T02:27:29.323Z,975.58
2016-08-12T02:28:29.323Z,975.61
2016-08-12T02:29:29.323Z,975.62
2016-08-12T02:30:29.323Z,975.61
2016-08-12T02:31:29.319Z,975.64
2016-08-12T02:32:29.319Z,975.64
2016-08-12T02:34:29.319Z,975.69
2016-08-12T02:35:29.316Z,975.74
2016-08-12T02:36:29.315Z,975.67
2016-08-12T02:37:29.315Z,975.7
2016-08-12T02:38:29.316Z,975.72
2016-08-12T02:39:29.316Z,975.7
2016-08-12T02:40:29.317Z,975.71
2016-08-12T02:41:29.311Z,975.7
2016-08-12T02:42:29.312Z,975.7
2016-08-12T02:43:29.311Z,975.69
2016-08-12T02:44:29.311Z,975.68
2016-08-12T02:45:29.307Z,975.71
2016-08-12T02:46:29.308Z,975.7
2016-08-12T02:47:29.307Z,975.72
2016-08-12T02:48:29.308Z,975.75
2016-08-12T02:49:29.308Z,975.72
2016-08-12T02:50:29.311Z,975.73
2016-08-12T02:51:29.303Z,975.75
2016-08-12T02:52:29.308Z,975.76
2016-08-12T02:53:29.304Z,975.77
2016-08-12T02:54:29.300Z,975.8
2016-08-12T02:55:29.300Z,975.77
2016-08-12T02:56:29.302Z,975.74
2016-08-12T02:57:29.300Z,975.74
2016-08-12T02:58:29.299Z,975.73
2016-08-12T02:59:29.296Z,975.77
2016-08-12T03:00:29.296Z,975.75
2016-08-12T03:01:29.296Z,975.81
2016-08-12T03:02:29.297Z,975.82
2016-08-12T03:04:29.292Z,975.83
2016-08-12T03:05:29.292Z,975.82
2016-08-12T03:06:29.292Z,975.83
2016-08-12T03:07:29.292Z,975.86
2016-08-12T03:08:29.292Z,975.83
2016-08-12T03:09:29.293Z,975.86
2016-08-12T03:10:29.288Z,975.84
2016-08-12T03:11:29.289Z,975.89
2016-08-12T03:12:29.289Z,975.87
2016-08-12T03:13:29.289Z,975.9
2016-08-12T03:14:29.285Z,975.87
2016-08-12T03:15:29.285Z,975.87
2016-08-12T03:16:29.285Z,975.89
2016-08-12T03:17:29.285Z,975.89
2016-08-12T03:18:29.285Z,975.86
2016-08-12T03:19:29.284Z,975.87
2016-08-12T03:20:29.282Z,975.89
2016-08-12T03:21:29.280Z,975.93
2016-08-12T03:22:29.281Z,975.9
2016-08-12T03:23:29.277Z,975.92
2016-08-12T03:24:29.276Z,975.93
2016-08-12T03:25:29.277Z,975.92
2016-08-12T03:26:29.277Z,976
2016-08-12T03:27:29.277Z,976
2016-08-12T03:28:29.273Z,975.99
2016-08-12T03:29:29.273Z,975.99
2016-08-12T03:30:29.274Z,976.01
2016-08-12T03:31:29.273Z,976
2016-08-12T03:32:29.273Z,975.99
2016-08-12T03:33:29.273Z,976.03
2016-08-12T03:34:29.269Z,976.03
2016-08-12T03:35:29.269Z,976
2016-08-12T03:36:29.269Z,976
2016-08-12T03:37:29.264Z,976
2016-08-12T03:38:29.264Z,976.04
2016-08-12T03:39:29.265Z,976.01
2016-08-12T03:40:29.265Z,976
2016-08-12T03:41:29.261Z,976
2016-08-12T03:42:29.262Z,976.02
2016-08-12T03:43:29.261Z,976.03
2016-08-12T03:44:29.261Z,976.02
2016-08-12T03:45:29.263Z,976.01
2016-08-12T03:46:29.257Z,976.02
2016-08-12T03:47:29.257Z,976.01
2016-08-12T03:48:29.257Z,975.99
2016-08-12T03:49:29.258Z,976.03
2016-08-12T03:50:29.258Z,976.01
2016-08-12T03:51:29.253Z,976.04
2016-08-12T03:52:29.253Z,976.03
2016-08-12T03:53:29.253Z,976.01
2016-08-12T03:54:29.254Z,976.02
2016-08-12T03:55:29.254Z,975.99
2016-08-12T03:56:29.250Z,975.96
2016-08-12T03:57:29.249Z,975.95
2016-08-12T03:58:29.250Z,975.94
2016-08-12T03:59:29.250Z,975.94
2016-08-12T04:00:29.247Z,975.94
2016-08-12T04:01:29.247Z,975.93
2016-08-12T04:02:29.245Z,975.91
2016-08-12T04:03:29.246Z,975.92
2016-08-12T04:04:29.245Z,975.96
2016-08-12T04:05:29.243Z,975.97
2016-08-12T04:06:29.242Z,975.98
2016-08-12T04:07:29.243Z,976
2016-08-12T04:08:29.242Z,976
2016-08-12T04:09:29.242Z,976
2016-08-12T04:10:29.238Z,976.02
2016-08-12T04:11:29.238Z,976.03
2016-08-12T04:12:29.238Z,976.02
2016-08-12T04:13:29.239Z,976.07
2016-08-12T04:14:29.234Z,976.05
2016-08-12T04:15:29.235Z,976.06
2016-08-12T04:16:29.235Z,976.09
2016-08-12T04:17:29.235Z,976.05
2016-08-12T04:18:29.230Z,976.11
2016-08-12T04:19:29.230Z,976.13
2016-08-12T04:20:29.230Z,976.11
2016-08-12T04:21:29.231Z,976.15
2016-08-12T04:22:29.227Z,976.12
2016-08-12T04:23:29.226Z,976.12
2016-08-12T04:24:29.227Z,976.14
2016-08-12T04:25:29.227Z,976.15
2016-08-12T04:26:29.227Z,976.18
2016-08-12T04:27:29.223Z,976.18
2016-08-12T04:28:29.222Z,976.16
2016-08-12T04:29:29.223Z,976.21
2016-08-12T04:30:29.223Z,976.19
2016-08-12T04:31:29.223Z,976.21
2016-08-12T04:32:29.219Z,976.22
2016-08-12T04:33:29.219Z,976.2
2016-08-12T04:34:29.219Z,976.21
2016-08-12T04:35:29.220Z,976.25
2016-08-12T04:36:29.215Z,976.22
2016-08-12T04:37:29.219Z,976.25
2016-08-12T04:38:29.215Z,976.32
2016-08-12T04:39:29.221Z,976.3
2016-08-12T04:40:29.216Z,976.32
2016-08-12T04:41:29.215Z,976.37
2016-08-12T04:42:29.211Z,976.36
2016-08-12T04:43:29.212Z,976.34
2016-08-12T04:44:29.212Z,976.37
2016-08-12T04:45:29.211Z,976.33
2016-08-12T04:46:29.212Z,976.44
2016-08-12T04:47:29.207Z,976.43
2016-08-12T04:48:29.207Z,976.47
2016-08-12T04:49:29.208Z,976.47
2016-08-12T04:50:29.203Z,976.45
2016-08-12T04:51:29.209Z,976.46
2016-08-12T04:52:29.203Z,976.5
2016-08-12T04:53:29.203Z,976.53
2016-08-12T04:54:29.204Z,976.51
2016-08-12T04:55:29.199Z,976.48
2016-08-12T04:56:29.199Z,976.49
2016-08-12T04:57:29.200Z,976.47
2016-08-12T04:58:29.202Z,976.49
2016-08-12T04:59:29.195Z,976.48
2016-08-12T05:00:29.196Z,976.49
2016-08-12T05:01:29.195Z,976.49
2016-08-12T05:02:29.196Z,976.56
2016-08-12T05:03:29.197Z,976.55
2016-08-12T05:04:29.191Z,976.53
2016-08-12T05:05:29.192Z,976.54
2016-08-12T05:06:29.193Z,976.57
2016-08-12T05:07:29.192Z,976.64
2016-08-12T05:08:29.193Z,976.66
2016-08-12T05:09:29.189Z,976.66
2016-08-12T05:10:29.189Z,976.68
2016-08-12T05:11:29.189Z,976.68
2016-08-12T05:12:29.188Z,976.63
2016-08-12T05:13:29.185Z,976.67
2016-08-12T05:14:29.184Z,976.65
2016-08-12T05:15:29.185Z,976.66
2016-08-12T05:16:29.184Z,976.71
2016-08-12T05:17:29.182Z,976.66
2016-08-12T05:18:29.181Z,976.69
2016-08-12T05:19:29.181Z,976.69
2016-08-12T05:20:29.181Z,976.64
2016-08-12T05:21:29.181Z,976.64
2016-08-12T05:22:29.181Z,976.65
2016-08-12T05:23:29.178Z,976.59
2016-08-12T05:24:29.186Z,976.59
2016-08-12T05:25:29.177Z,976.65
2016-08-12T05:26:29.177Z,976.63
2016-08-12T05:27:29.173Z,976.65
2016-08-12T05:28:29.173Z,976.66
2016-08-12T05:29:29.173Z,976.62
2016-08-12T05:30:29.173Z,976.68
2016-08-12T05:31:29.173Z,976.73
2016-08-12T05:32:29.169Z,976.7
2016-08-12T05:33:29.169Z,976.69
2016-08-12T05:34:29.168Z,976.7
2016-08-12T05:35:29.169Z,976.75
2016-08-12T05:36:29.170Z,976.75
2016-08-12T05:37:29.169Z,976.74
2016-08-12T05:38:29.165Z,976.78
2016-08-12T05:39:29.166Z,976.77
2016-08-12T05:40:29.165Z,976.76
2016-08-12T05:41:29.165Z,976.78
2016-08-12T05:42:29.163Z,976.77
2016-08-12T05:43:29.161Z,976.79
2016-08-12T05:44:29.162Z,976.75
2016-08-12T05:45:29.162Z,976.77
2016-08-12T05:46:29.162Z,976.8
2016-08-12T05:47:29.158Z,976.8
2016-08-12T05:48:29.158Z,976.82
2016-08-12T05:49:29.159Z,976.79
2016-08-12T05:50:29.158Z,976.75
2016-08-12T05:51:29.158Z,976.8
2016-08-12T05:52:29.158Z,976.84
2016-08-12T05:53:29.155Z,976.83
2016-08-12T05:54:29.166Z,976.88
2016-08-12T05:55:29.154Z,976.88
2016-08-12T05:56:29.153Z,976.88
2016-08-12T05:57:29.150Z,976.94
2016-08-12T05:58:29.151Z,976.93
2016-08-12T05:59:29.150Z,976.95
2016-08-12T06:00:29.151Z,976.97
2016-08-12T06:01:29.151Z,977.02
2016-08-12T06:02:29.151Z,977.02
2016-08-12T06:03:29.146Z,977.03
2016-08-12T06:04:29.151Z,977.07
2016-08-12T06:05:29.146Z,977.05
2016-08-12T06:06:29.146Z,977.07
2016-08-12T06:07:29.142Z,977.09
2016-08-12T06:08:29.142Z,977.1
2016-08-12T06:09:29.142Z,977.1
2016-08-12T06:10:29.143Z,977.19
2016-08-12T06:11:29.143Z,977.14
2016-08-12T06:12:29.138Z,977.19
2016-08-12T06:13:29.139Z,977.16
2016-08-12T06:14:29.139Z,977.17
2016-08-12T06:15:29.143Z,977.24
2016-08-12T06:16:29.139Z,977.23
2016-08-12T06:17:29.138Z,977.26
2016-08-12T06:18:29.135Z,977.25
2016-08-12T06:20:29.135Z,977.25
2016-08-12T06:21:29.139Z,977.26
2016-08-12T06:22:29.134Z,977.27
2016-08-12T06:23:29.134Z,977.24
2016-08-12T06:24:29.131Z,977.29
2016-08-12T06:25:29.130Z,977.27
2016-08-12T06:26:29.132Z,977.27
2016-08-12T06:27:29.131Z,977.29
2016-08-12T06:28:29.131Z,977.29
2016-08-12T06:29:29.127Z,977.28
2016-08-12T06:30:29.127Z,977.33
2016-08-12T06:31:29.128Z,977.33
2016-08-12T06:32:29.130Z,977.35
2016-08-12T06:33:29.127Z,977.38
2016-08-12T06:34:29.124Z,977.39
2016-08-12T06:35:29.123Z,977.37
2016-08-12T06:36:29.124Z,977.38
2016-08-12T06:37:29.123Z,977.4
2016-08-12T06:38:29.124Z,977.42
2016-08-12T06:39:29.124Z,977.38
2016-08-12T06:40:29.119Z,977.4
2016-08-12T06:41:29.121Z,977.4
2016-08-12T06:42:29.120Z,977.39
2016-08-12T06:43:29.120Z,977.34
2016-08-12T06:44:29.119Z,977.35
2016-08-12T06:45:29.116Z,977.37
2016-08-12T06:46:29.116Z,977.38
2016-08-12T06:47:29.115Z,977.32
2016-08-12T06:48:29.116Z,977.36
2016-08-12T06:50:29.116Z,977.39
2016-08-12T06:51:29.113Z,977.36
2016-08-12T06:52:29.111Z,977.37
2016-08-12T06:53:29.116Z,977.38
2016-08-12T06:54:29.113Z,977.4
2016-08-12T06:55:29.112Z,977.43
2016-08-12T06:56:29.113Z,977.41
2016-08-12T06:57:29.112Z,977.44
2016-08-12T06:58:29.109Z,977.44
2016-08-12T06:59:29.108Z,977.47
2016-08-12T07:00:29.109Z,977.48
2016-08-12T07:01:29.109Z,977.45
2016-08-12T07:02:29.109Z,977.45
2016-08-12T07:03:29.109Z,977.45
2016-08-12T07:04:29.109Z,977.48
2016-08-12T07:05:29.108Z,977.46
2016-08-12T07:06:29.105Z,977.48
2016-08-12T07:07:29.104Z,977.45
2016-08-12T07:08:29.105Z,977.49
2016-08-12T07:09:29.105Z,977.49
2016-08-12T07:10:29.104Z,977.5
2016-08-12T07:11:29.104Z,977.5
2016-08-12T07:12:29.106Z,977.49
2016-08-12T07:13:29.101Z,977.54
2016-08-12T07:14:29.102Z,977.5
2016-08-12T07:15:29.102Z,977.54
2016-08-12T07:16:29.101Z,977.56
2016-08-12T07:17:29.102Z,977.56
2016-08-12T07:18:29.101Z,977.6
2016-08-12T07:19:29.102Z,977.59
2016-08-12T07:20:29.101Z,977.62
2016-08-12T07:21:29.098Z,977.63
2016-08-12T07:22:29.098Z,977.65
2016-08-12T07:23:29.097Z,977.65
2016-08-12T07:24:29.098Z,977.63
2016-08-12T07:25:29.098Z,977.64
2016-08-12T07:26:29.098Z,977.68
2016-08-12T07:27:29.098Z,977.67
2016-08-12T07:28:29.098Z,977.68
2016-08-12T07:29:29.098Z,977.7
2016-08-12T07:30:29.098Z,977.74
2016-08-12T07:31:29.095Z,977.71
2016-08-12T07:32:29.095Z,977.78
2016-08-12T07:33:29.095Z,977.71
2016-08-12T07:35:29.094Z,977.71
2016-08-12T07:36:29.094Z,977.75
2016-08-12T07:37:29.095Z,977.72
2016-08-12T07:38:29.094Z,977.73
2016-08-12T07:39:29.095Z,977.77
2016-08-12T07:40:29.093Z,977.74
2016-08-12T07:41:29.095Z,977.76
2016-08-12T07:42:29.091Z,977.75
2016-08-12T07:43:29.091Z,977.74
2016-08-12T07:44:29.091Z,977.76
2016-08-12T07:45:29.092Z,977.72
2016-08-12T07:46:29.091Z,977.73
2016-08-12T07:47:29.091Z,977.66
2016-08-12T07:48:29.091Z,977.68
2016-08-12T07:50:29.091Z,977.65
2016-08-12T07:51:29.091Z,977.67
2016-08-12T07:52:29.091Z,977.66
2016-08-12T07:53:29.091Z,977.66
2016-08-12T07:54:29.091Z,977.62
2016-08-12T07:55:29.092Z,977.6
2016-08-12T07:56:29.091Z,977.63
2016-08-12T07:57:29.087Z,977.65
2016-08-12T07:58:29.088Z,977.64
2016-08-12T07:59:29.088Z,977.7
2016-08-12T08:00:29.093Z,977.74
2016-08-12T08:01:29.088Z,977.66
2016-08-12T08:02:29.088Z,977.71
2016-08-12T08:03:29.088Z,977.68
2016-08-12T08:05:29.088Z,977.73
2016-08-12T08:06:29.087Z,977.74
2016-08-12T08:07:29.087Z,977.73
2016-08-12T08:08:29.088Z,977.68
2016-08-12T08:09:29.088Z,977.68
2016-08-12T08:10:29.087Z,977.68
2016-08-12T08:11:29.086Z,977.66
2016-08-12T08:12:29.087Z,977.68
2016-08-12T08:13:29.088Z,977.67
2016-08-12T08:14:29.087Z,977.66
2016-08-12T08:15:29.087Z,977.69
2016-08-12T08:16:29.087Z,977.69
2016-08-12T08:17:29.091Z,977.7
2016-08-12T08:18:29.091Z,977.69
2016-08-12T08:19:29.091Z,977.68
2016-08-12T08:20:29.096Z,977.71
2016-08-12T08:21:29.091Z,977.67
2016-08-12T08:22:29.091Z,977.75
2016-08-12T08:23:29.091Z,977.74
2016-08-12T08:24:29.091Z,977.75
2016-08-12T08:25:29.091Z,977.79
2016-08-12T08:26:29.092Z,977.81
2016-08-12T08:27:29.091Z,977.8
2016-08-12T08:28:29.095Z,977.8
2016-08-12T08:29:29.095Z,977.79
2016-08-12T08:30:29.095Z,977.76
2016-08-12T08:31:29.098Z,977.78
2016-08-12T08:32:29.095Z,977.79
2016-08-12T08:33:29.095Z,977.82
2016-08-12T08:34:29.095Z,977.76
2016-08-12T08:35:29.100Z,977.73
2016-08-12T08:36:29.100Z,977.71
2016-08-12T08:37:29.100Z,977.74
2016-08-12T08:38:29.100Z,977.71
2016-08-12T08:39:29.100Z,977.71
2016-08-12T08:40:29.104Z,977.74
2016-08-12T08:41:29.104Z,977.68
2016-08-12T08:42:29.103Z,977.71
2016-08-12T08:43:29.103Z,977.7
2016-08-12T08:44:29.104Z,977.74
2016-08-12T08:45:29.108Z,977.74
2016-08-12T08:46:29.108Z,977.77
2016-08-12T08:47:29.108Z,977.75
2016-08-12T08:48:29.108Z,977.75
2016-08-12T08:49:29.112Z,977.72
2016-08-12T08:50:29.112Z,977.77
2016-08-12T08:51:29.117Z,977.75
2016-08-12T08:52:29.116Z,977.73
2016-08-12T08:53:29.115Z,977.72
2016-08-12T08:54:29.120Z,977.71
2016-08-12T08:55:29.121Z,977.72
2016-08-12T08:56:29.120Z,977.74
2016-08-12T08:57:29.124Z,977.72
2016-08-12T08:58:29.124Z,977.72
2016-08-12T08:59:29.124Z,977.66
2016-08-12T09:00:29.128Z,977.65
2016-08-12T09:01:29.129Z,977.63
2016-08-12T09:02:29.129Z,977.67
2016-08-12T09:03:29.133Z,977.66
2016-08-12T09:04:29.132Z,977.66
2016-08-12T09:05:29.136Z,977.69
2016-08-12T09:06:29.137Z,977.73
2016-08-12T09:07:29.141Z,977.68
2016-08-12T09:08:29.141Z,977.72
2016-08-12T09:09:29.140Z,977.71
2016-08-12T09:10:29.141Z,977.71
2016-08-12T09:11:29.145Z,977.75
2016-08-12T09:12:29.145Z,977.75
2016-08-12T09:13:29.149Z,977.74
2016-08-12T09:14:29.149Z,977.75
2016-08-12T09:15:29.157Z,977.71
2016-08-12T09:16:29.153Z,977.73
2016-08-12T09:17:29.153Z,977.75
2016-08-12T09:18:29.157Z,977.77
2016-08-12T09:19:29.157Z,977.75
2016-08-12T09:20:29.161Z,977.78
2016-08-12T09:21:29.161Z,977.74
2016-08-12T09:22:29.160Z,977.78
2016-08-12T09:23:29.165Z,977.78
2016-08-12T09:24:29.165Z,977.76
2016-08-12T09:25:29.169Z,977.75
2016-08-12T09:26:29.169Z,977.75
2016-08-12T09:27:29.173Z,977.79
2016-08-12T09:28:29.173Z,977.78
2016-08-12T09:29:29.178Z,977.78
2016-08-12T09:30:29.177Z,977.79
2016-08-12T09:31:29.182Z,977.79
2016-08-12T09:32:29.182Z,977.77
2016-08-12T09:33:29.181Z,977.76
2016-08-12T09:34:29.185Z,977.76
2016-08-12T09:35:29.185Z,977.71
2016-08-12T09:36:29.190Z,977.71
2016-08-12T09:37:29.190Z,977.68
2016-08-12T09:38:29.199Z,977.7
2016-08-12T09:39:29.193Z,977.7
2016-08-12T09:40:29.193Z,977.77
2016-08-12T09:41:29.197Z,977.73
2016-08-12T09:42:29.198Z,977.75
2016-08-12T09:43:29.202Z,977.73
2016-08-12T09:44:29.202Z,977.76
2016-08-12T09:45:29.205Z,977.77
2016-08-12T09:46:29.206Z,977.73
2016-08-12T09:47:29.205Z,977.78
2016-08-12T09:48:29.210Z,977.79
2016-08-12T09:49:29.216Z,977.8
2016-08-12T09:50:29.214Z,977.72
2016-08-12T09:51:29.214Z,977.76
2016-08-12T09:52:29.218Z,977.77
2016-08-12T09:53:29.217Z,977.78
2016-08-12T09:54:29.223Z,977.76
2016-08-12T09:55:29.223Z,977.8
2016-08-12T09:56:29.227Z,977.78
2016-08-12T09:57:29.227Z,977.76
2016-08-12T09:58:29.230Z,977.73
2016-08-12T09:59:29.231Z,977.72
2016-08-12T10:00:29.234Z,977.72
2016-08-12T10:01:29.235Z,977.73
2016-08-12T10:02:29.235Z,977.78
2016-08-12T10:03:29.246Z,977.76
2016-08-12T10:04:29.238Z,977.78
2016-08-12T10:05:29.242Z,977.78
2016-08-12T10:06:29.243Z,977.79
2016-08-12T10:07:29.247Z,977.83
2016-08-12T10:08:29.247Z,977.79
2016-08-12T10:09:29.251Z,977.79
2016-08-12T10:10:29.251Z,977.77
2016-08-12T10:11:29.255Z,977.8
2016-08-12T10:12:29.255Z,977.8
2016-08-12T10:13:29.259Z,977.76
2016-08-12T10:14:29.259Z,977.74
2016-08-12T10:15:29.263Z,977.76
2016-08-12T10:16:29.262Z,977.8
2016-08-12T10:17:29.267Z,977.79
2016-08-12T10:18:29.267Z,977.77
2016-08-12T10:19:29.268Z,977.8
2016-08-12T10:20:29.271Z,977.82
2016-08-12T10:21:29.275Z,977.77
2016-08-12T10:22:29.275Z,977.77
2016-08-12T10:23:29.276Z,977.75
2016-08-12T10:24:29.279Z,977.76
2016-08-12T10:25:29.279Z,977.81
2016-08-12T10:26:29.283Z,977.81
2016-08-12T10:27:29.283Z,977.81
2016-08-12T10:28:29.288Z,977.8
2016-08-12T10:29:29.287Z,977.79
2016-08-12T10:30:29.291Z,977.77
2016-08-12T10:31:29.291Z,977.77
2016-08-12T10:32:29.295Z,977.77
2016-08-12T10:33:29.296Z,977.75
2016-08-12T10:34:29.299Z,977.73
2016-08-12T10:35:29.300Z,977.74
2016-08-12T10:36:29.303Z,977.75
2016-08-12T10:37:29.303Z,977.76
2016-08-12T10:38:29.308Z,977.76
2016-08-12T10:39:29.307Z,977.79
2016-08-12T10:40:29.311Z,977.8
2016-08-12T10:41:29.312Z,977.82
2016-08-12T10:42:29.316Z,977.74
2016-08-12T10:43:29.316Z,977.76
2016-08-12T10:44:29.319Z,977.77
2016-08-12T10:45:29.320Z,977.75
2016-08-12T10:46:29.324Z,977.76
2016-08-12T10:47:29.324Z,977.76
2016-08-12T10:48:29.329Z,977.79
2016-08-12T10:49:29.328Z,977.78
2016-08-12T10:50:29.333Z,977.82
2016-08-12T10:51:29.337Z,977.78
2016-08-12T10:52:29.337Z,977.74
2016-08-12T10:53:29.341Z,977.76
2016-08-12T10:54:29.341Z,977.73
2016-08-12T10:55:29.344Z,977.73
2016-08-12T10:56:29.345Z,977.73
2016-08-12T10:57:29.348Z,977.74
2016-08-12T10:58:29.352Z,977.73
2016-08-12T10:59:29.352Z,977.74
2016-08-12T11:00:29.356Z,977.74
2016-08-12T11:01:29.361Z,977.75
2016-08-12T11:02:29.364Z,977.82
2016-08-12T11:03:29.365Z,977.8
2016-08-12T11:04:29.368Z,977.79
2016-08-12T11:05:29.368Z,977.83
2016-08-12T11:06:29.372Z,977.81
2016-08-12T11:07:29.372Z,977.8
2016-08-12T11:08:29.376Z,977.79
2016-08-12T11:09:29.384Z,977.79
2016-08-12T11:10:29.381Z,977.77
2016-08-12T11:11:29.384Z,977.79
2016-08-12T11:12:29.388Z,977.75
2016-08-12T11:13:29.389Z,977.79
2016-08-12T11:14:29.392Z,977.75
2016-08-12T11:15:29.396Z,977.75
2016-08-12T11:16:29.397Z,977.74
2016-08-12T11:17:29.400Z,977.81
2016-08-12T11:18:29.401Z,977.74
2016-08-12T11:19:29.405Z,977.75
2016-08-12T11:20:29.409Z,977.73
2016-08-12T11:21:29.408Z,977.75
2016-08-12T11:22:29.413Z,977.79
2016-08-12T11:23:29.417Z,977.78
2016-08-12T11:24:29.418Z,977.74
2016-08-12T11:25:29.422Z,977.72
2016-08-12T11:26:29.425Z,977.76
2016-08-12T11:27:29.425Z,977.69
2016-08-12T11:28:29.429Z,977.72
2016-08-12T11:29:29.433Z,977.7
2016-08-12T11:30:29.433Z,977.71
2016-08-12T11:31:29.437Z,977.71
2016-08-12T11:32:29.441Z,977.65
2016-08-12T11:33:29.442Z,977.68
2016-08-12T11:34:29.446Z,977.68
2016-08-12T11:35:29.450Z,977.68
2016-08-12T11:36:29.449Z,977.7
2016-08-12T11:37:29.453Z,977.69
2016-08-12T11:38:29.459Z,977.71
2016-08-12T11:39:29.461Z,977.69
2016-08-12T11:40:29.461Z,977.67
2016-08-12T11:41:29.466Z,977.69
2016-08-12T11:42:29.469Z,977.66
2016-08-12T11:43:29.469Z,977.67
2016-08-12T11:44:29.473Z,977.64
2016-08-12T11:45:29.477Z,977.63
2016-08-12T11:46:29.482Z,977.6
2016-08-12T11:47:29.482Z,977.64
2016-08-12T11:48:29.485Z,977.67
2016-08-12T11:49:29.490Z,977.65
2016-08-12T11:50:29.571Z,977.64
2016-08-12T11:51:29.493Z,977.63
2016-08-12T11:52:29.497Z,977.64
2016-08-12T11:53:29.501Z,977.64
2016-08-12T11:54:29.501Z,977.66
2016-08-12T11:55:29.505Z,977.65
2016-08-12T11:56:29.509Z,977.64
2016-08-12T11:57:29.514Z,977.65
2016-08-12T11:58:29.513Z,977.69
2016-08-12T11:59:29.518Z,977.66
2016-08-12T12:00:29.522Z,977.67
2016-08-12T12:01:29.526Z,977.7
2016-08-12T12:02:29.525Z,977.65
2016-08-12T12:03:29.530Z,977.67
2016-08-12T12:04:29.533Z,977.67
2016-08-12T12:05:29.533Z,977.68
2016-08-12T12:06:29.538Z,977.64
2016-08-12T12:07:29.547Z,977.63
2016-08-12T12:08:29.547Z,977.61
2016-08-12T12:09:29.546Z,977.6
2016-08-12T12:10:29.550Z,977.6
2016-08-12T12:11:29.554Z,977.58
2016-08-12T12:12:29.559Z,977.59
2016-08-12T12:13:29.560Z,977.59
2016-08-12T12:14:29.562Z,977.58
2016-08-12T12:15:29.567Z,977.56
2016-08-12T12:16:29.569Z,977.57
2016-08-12T12:17:29.569Z,977.57
2016-08-12T12:18:29.574Z,977.54
2016-08-12T12:19:29.579Z,977.54
2016-08-12T12:20:29.583Z,977.54
2016-08-12T12:21:29.582Z,977.56
2016-08-12T12:22:29.586Z,977.51
2016-08-12T12:23:29.591Z,977.53
2016-08-12T12:24:29.590Z,977.53
2016-08-12T12:25:29.594Z,977.53
2016-08-12T12:26:29.598Z,977.55
2016-08-12T12:27:29.602Z,977.5
2016-08-12T12:28:29.603Z,977.5
2016-08-12T12:29:29.606Z,977.52
2016-08-12T12:30:29.619Z,977.54
2016-08-12T12:31:29.615Z,977.53
2016-08-12T12:32:29.623Z,977.52
2016-08-12T12:33:29.619Z,977.47
2016-08-12T12:34:29.623Z,977.49
2016-08-12T12:35:29.627Z,977.49
2016-08-12T12:36:29.630Z,977.48
2016-08-12T12:37:29.640Z,977.54
2016-08-12T12:38:29.635Z,977.51
2016-08-12T12:39:29.639Z,977.51
2016-08-12T12:40:29.645Z,977.5
2016-08-12T12:41:29.646Z,977.55
2016-08-12T12:42:29.646Z,977.57